Time;durP1;ratioP1;P1;durP2;ratioP2;P2;SDS_P1;SDS_P2;PMS_P1;PMS_P2;Temp;Humidity;BMP_temperature;BMP_pressure;BME280_temperature;BME280_humidity;BME280_pressure;Samples;Min_cycle;Max_cycle;Signal;HPM_P1;HPM_P2
2021/09/25 00:01:22;;;;;;;1.75;0.30;;;25.70;50.20;;;;;;5053786;28;20090;-54
2021/09/25 00:03:49;;;;;;;0.88;0.88;;;25.70;50.20;;;;;;5051632;28;20069;-54
2021/09/25 00:06:16;;;;;;;0.90;0.82;;;25.70;50.30;;;;;;5051324;28;20068;-56
2021/09/25 00:08:44;;;;;;;0.63;0.47;;;25.60;50.20;;;;;;5055159;28;20580;-51
2021/09/25 00:11:11;;;;;;;0.50;0.50;;;25.60;50.20;;;;;;5058744;28;20042;-53
2021/09/25 00:13:38;;;;;;;0.60;0.32;;;25.60;50.30;;;;;;5064192;28;20133;-55
2021/09/25 00:16:07;;;;;;;0.68;0.68;;;25.60;50.40;;;;;;5052676;28;24795;-54
2021/09/25 00:18:35;;;;;;;0.60;0.50;;;25.60;50.30;;;;;;5053165;28;20119;-55
2021/09/25 00:21:03;;;;;;;1.48;0.73;;;25.60;50.30;;;;;;5055338;28;20128;-55
2021/09/25 00:23:30;;;;;;;1.05;0.47;;;25.60;50.30;;;;;;5056482;28;20049;-55
2021/09/25 00:26:11;;;;;;;1.60;0.47;;;25.60;50.30;;;;;;5053403;28;20560;-55
2021/09/25 00:28:38;;;;;;;0.60;0.60;;;25.60;50.40;;;;;;5064174;28;20469;-54
2021/09/25 00:31:07;;;;;;;0.50;0.50;;;25.60;50.40;;;;;;5049619;28;20037;-54
2021/09/25 00:33:34;;;;;;;0.75;0.50;;;25.60;50.40;;;;;;5052753;28;20497;-53
2021/09/25 00:36:01;;;;;;;2.30;0.22;;;25.60;50.40;;;;;;5062545;28;20033;-54
2021/09/25 00:38:28;;;;;;;2.17;1.60;;;25.50;50.50;;;;;;5062882;28;20044;-55
2021/09/25 00:40:55;;;;;;;0.77;0.55;;;25.50;50.40;;;;;;5059204;28;20074;-54
2021/09/25 00:43:22;;;;;;;1.17;1.08;;;25.50;50.40;;;;;;5054891;28;20045;-54
2021/09/25 00:45:49;;;;;;;0.65;0.40;;;25.50;50.40;;;;;;5050245;28;20037;-54
2021/09/25 00:48:17;;;;;;;2.08;0.30;;;25.50;50.40;;;;;;5053981;28;20041;-52
2021/09/25 00:50:44;;;;;;;0.65;0.50;;;25.50;51.00;;;;;;5051704;28;20064;-54
2021/09/25 00:53:12;;;;;;;0.50;0.45;;;25.50;50.40;;;;;;5052885;28;20714;-55
2021/09/25 00:55:39;;;;;;;0.63;0.40;;;25.50;50.50;;;;;;5055887;28;20040;-54
2021/09/25 00:58:07;;;;;;;0.30;0.20;;;25.50;50.50;;;;;;5052133;28;20501;-56
2021/09/25 01:00:36;;;;;;;0.50;0.50;;;25.50;50.50;;;;;;5047633;28;20041;-55
2021/09/25 01:03:03;;;;;;;0.95;0.25;;;25.40;50.40;;;;;;5050623;28;20075;-55
2021/09/25 01:05:33;;;;;;;1.52;1.00;;;25.40;50.40;;;;;;5053006;28;20049;-55
2021/09/25 01:08:01;;;;;;;0.40;0.40;;;25.40;50.50;;;;;;5052972;28;20048;-54
2021/09/25 01:10:28;;;;;;;2.45;0.30;;;25.40;50.50;;;;;;5063047;28;20072;-52
2021/09/25 01:12:55;;;;;;;0.50;0.38;;;25.40;50.50;;;;;;5047497;28;20512;-54
2021/09/25 01:15:22;;;;;;;0.68;0.68;;;25.40;50.50;;;;;;5051561;28;20535;-56
2021/09/25 01:17:49;;;;;;;0.45;0.38;;;25.40;50.50;;;;;;5051048;28;20409;-54
2021/09/25 01:20:16;;;;;;;1.13;0.50;;;25.40;50.60;;;;;;5051435;28;20033;-55
2021/09/25 01:22:45;;;;;;;1.08;0.45;;;25.30;50.50;;;;;;5051107;28;20052;-54
2021/09/25 01:25:12;;;;;;;0.65;0.57;;;25.40;50.60;;;;;;5049114;28;20045;-54
2021/09/25 01:27:40;;;;;;;1.63;0.63;;;25.30;50.60;;;;;;5051175;28;20095;-54
2021/09/25 01:30:13;;;;;;;0.70;0.55;;;25.30;50.60;;;;;;5050723;28;20043;-55
2021/09/25 01:32:40;;;;;;;1.60;0.20;;;25.30;50.60;;;;;;5049796;28;20057;-54
2021/09/25 01:35:09;;;;;;;0.90;0.43;;;25.30;50.60;;;;;;5053192;28;20080;-54
2021/09/25 01:37:36;;;;;;;3.95;0.47;;;25.30;50.60;;;;;;5063044;28;20043;-53
2021/09/25 01:40:06;;;;;;;3.13;0.50;;;25.30;50.80;;;;;;5049238;28;20041;-60
2021/09/25 01:42:34;;;;;;;7.20;0.93;;;25.30;51.20;;;;;;5047694;28;20053;-60
2021/09/25 01:45:01;;;;;;;2.20;1.13;;;25.30;51.50;;;;;;5048763;28;20569;-62
2021/09/25 01:47:28;;;;;;;7.68;0.80;;;25.30;51.70;;;;;;5056612;28;20139;-53
2021/09/25 01:50:01;;;;;;;3.55;1.67;;;25.30;52.40;;;;;;5060573;28;20135;-52
2021/09/25 01:52:28;;;;;;;3.38;2.88;;;25.30;51.80;;;;;;5063265;28;20090;-50
2021/09/25 01:54:56;;;;;;;4.07;2.88;;;25.20;51.10;;;;;;5061725;28;20568;-55
2021/09/25 01:57:24;;;;;;;4.43;3.13;;;25.10;50.60;;;;;;5065150;28;20037;-55
2021/09/25 01:59:51;;;;;;;2.92;2.72;;;25.00;50.30;;;;;;5062894;28;20140;-54
2021/09/25 02:02:19;;;;;;;2.97;2.78;;;24.90;50.20;;;;;;5063475;28;20071;-51
2021/09/25 02:04:49;;;;;;;3.85;2.95;;;24.70;50.60;;;;;;5062761;28;20056;-50
2021/09/25 02:07:17;;;;;;;5.63;3.17;;;24.60;50.10;;;;;;5054991;28;20041;-53
2021/09/25 02:09:45;;;;;;;8.05;2.70;;;24.50;50.20;;;;;;5050349;28;20037;-52
2021/09/25 02:12:12;;;;;;;3.25;2.95;;;24.40;50.20;;;;;;5057185;28;20040;-53
2021/09/25 02:14:41;;;;;;;4.78;3.05;;;24.30;50.40;;;;;;5059927;28;20032;-54
2021/09/25 02:17:08;;;;;;;6.35;3.50;;;24.20;50.60;;;;;;5060800;28;20043;-53
2021/09/25 02:19:35;;;;;;;4.38;3.25;;;24.10;50.70;;;;;;5049028;28;20517;-51
2021/09/25 02:22:03;;;;;;;3.55;3.25;;;24.00;50.70;;;;;;5066032;28;20051;-53
2021/09/25 02:24:30;;;;;;;4.72;3.17;;;23.90;50.90;;;;;;5047593;28;20133;-51
2021/09/25 02:26:58;;;;;;;3.55;3.25;;;23.80;51.00;;;;;;5057919;28;20037;-49
2021/09/25 02:29:25;;;;;;;6.07;3.75;;;23.80;51.10;;;;;;5055200;28;20052;-48
2021/09/25 02:31:54;;;;;;;3.58;2.75;;;23.70;51.20;;;;;;5053506;28;20136;-49
2021/09/25 02:34:21;;;;;;;4.22;2.65;;;23.60;51.30;;;;;;5052550;28;20102;-50
2021/09/25 02:36:48;;;;;;;3.65;2.75;;;23.50;51.40;;;;;;5062279;28;20037;-50
2021/09/25 02:39:15;;;;;;;3.47;2.75;;;23.50;51.70;;;;;;5067273;28;20048;-49
2021/09/25 02:41:42;;;;;;;4.45;2.90;;;23.40;51.70;;;;;;5052826;28;20085;-49
2021/09/25 02:44:09;;;;;;;2.45;2.25;;;23.40;51.90;;;;;;5052958;28;20132;-53
2021/09/25 02:46:36;;;;;;;5.47;2.42;;;23.30;52.00;;;;;;5057024;28;20063;-53
2021/09/25 02:49:04;;;;;;;2.97;2.63;;;23.30;52.10;;;;;;5053338;28;20045;-52
2021/09/25 02:51:31;;;;;;;2.83;2.63;;;23.20;52.20;;;;;;5046971;28;20573;-53
2021/09/25 02:53:58;;;;;;;3.03;2.60;;;23.10;52.20;;;;;;5059963;28;20047;-52
2021/09/25 02:56:25;;;;;;;4.40;3.20;;;23.10;52.40;;;;;;5059487;28;20043;-52
2021/09/25 02:58:52;;;;;;;2.33;2.10;;;23.00;52.40;;;;;;5059930;28;20979;-52
2021/09/25 03:01:19;;;;;;;3.97;3.25;;;23.00;52.50;;;;;;5060985;28;20044;-51
2021/09/25 03:03:46;;;;;;;6.53;2.70;;;22.90;52.40;;;;;;5064082;28;20149;-51
2021/09/25 03:06:15;;;;;;;2.65;2.42;;;22.90;52.50;;;;;;5060939;28;20037;-49
2021/09/25 03:08:42;;;;;;;4.85;2.50;;;22.90;52.60;;;;;;5058217;28;20123;-50
2021/09/25 03:11:09;;;;;;;5.30;3.03;;;22.90;52.60;;;;;;5059777;28;20035;-52
2021/09/25 03:13:36;;;;;;;3.40;2.25;;;22.80;52.70;;;;;;5061026;28;20040;-53
2021/09/25 03:16:03;;;;;;;3.58;2.65;;;22.80;52.80;;;;;;5048445;28;20041;-50
2021/09/25 03:18:30;;;;;;;4.30;3.33;;;22.70;52.80;;;;;;5062950;28;20432;-53
2021/09/25 03:20:57;;;;;;;3.10;1.98;;;22.70;52.90;;;;;;5046361;28;20128;-50
2021/09/25 03:23:25;;;;;;;3.10;2.90;;;22.60;52.90;;;;;;5057885;28;20448;-52
2021/09/25 03:25:53;;;;;;;3.65;2.33;;;22.60;53.00;;;;;;5062698;28;20043;-51
2021/09/25 03:28:20;;;;;;;4.65;2.80;;;22.60;53.10;;;;;;5064643;28;20044;-51
2021/09/25 03:30:47;;;;;;;4.03;2.88;;;22.60;53.10;;;;;;5067345;28;20519;-52
2021/09/25 03:33:14;;;;;;;3.42;3.17;;;22.50;53.20;;;;;;5056149;28;20428;-50
2021/09/25 03:35:46;;;;;;;2.58;2.33;;;22.50;53.30;;;;;;5061781;28;20113;-52
2021/09/25 03:38:14;;;;;;;3.22;2.92;;;22.50;53.40;;;;;;5062747;28;20505;-50
2021/09/25 03:40:42;;;;;;;3.53;3.28;;;22.40;53.40;;;;;;5062555;28;20048;-52
2021/09/25 03:43:09;;;;;;;3.42;2.90;;;22.40;53.50;;;;;;5066281;28;20029;-52
2021/09/25 03:45:36;;;;;;;3.40;2.72;;;22.40;53.50;;;;;;5066280;28;20107;-52
2021/09/25 03:48:05;;;;;;;2.30;2.10;;;22.30;53.60;;;;;;5063984;28;20074;-51
2021/09/25 03:50:32;;;;;;;2.88;2.50;;;22.30;53.70;;;;;;5061704;28;20032;-49
2021/09/25 03:52:59;;;;;;;2.65;2.45;;;22.30;53.70;;;;;;5061868;28;20127;-50
2021/09/25 03:55:27;;;;;;;1.95;1.83;;;22.20;53.80;;;;;;5062960;28;20047;-51
2021/09/25 03:57:56;;;;;;;3.22;2.75;;;22.20;53.90;;;;;;5065689;28;20129;-50
2021/09/25 04:00:24;;;;;;;3.13;2.13;;;22.20;54.00;;;;;;5065011;28;20094;-49
2021/09/25 04:02:51;;;;;;;5.13;2.83;;;22.20;54.10;;;;;;5057177;28;20429;-47
2021/09/25 04:05:18;;;;;;;3.40;2.70;;;22.20;54.00;;;;;;5052836;28;20499;-49
2021/09/25 04:07:45;;;;;;;3.00;2.80;;;22.10;54.00;;;;;;5060626;28;20056;-49
2021/09/25 04:10:13;;;;;;;6.35;2.95;;;22.10;54.00;;;;;;5054230;28;20048;-51
2021/09/25 04:12:41;;;;;;;5.03;2.72;;;22.10;54.10;;;;;;5063142;28;20040;-48
2021/09/25 04:15:11;;;;;;;3.05;2.88;;;22.10;54.00;;;;;;5053869;28;20049;-48
2021/09/25 04:17:38;;;;;;;3.47;2.40;;;22.10;54.00;;;;;;5059185;28;20416;-53
2021/09/25 04:20:07;;;;;;;2.97;2.35;;;22.00;54.00;;;;;;5060004;28;20037;-50
2021/09/25 04:22:34;;;;;;;1.98;1.88;;;22.00;54.00;;;;;;5066823;28;20131;-51
2021/09/25 04:25:01;;;;;;;2.25;2.05;;;21.90;54.00;;;;;;5058038;28;20044;-48
2021/09/25 04:27:30;;;;;;;4.90;2.83;;;21.90;54.00;;;;;;5054602;28;20040;-54
2021/09/25 04:29:58;;;;;;;2.03;1.92;;;21.90;54.60;;;;;;5048931;28;20041;-50
2021/09/25 04:32:27;;;;;;;6.35;2.58;;;21.90;54.10;;;;;;5054558;28;20040;-53
2021/09/25 04:34:54;;;;;;;3.63;2.20;;;21.90;54.30;;;;;;5052625;28;20029;-49
2021/09/25 04:37:21;;;;;;;2.25;1.98;;;21.80;54.30;;;;;;5070860;28;20071;-51
2021/09/25 04:39:49;;;;;;;3.08;2.80;;;21.80;54.30;;;;;;5051788;28;20045;-53
2021/09/25 04:42:16;;;;;;;2.60;2.35;;;21.80;54.90;;;;;;5064651;28;20045;-51
2021/09/25 04:44:43;;;;;;;3.38;2.95;;;21.80;54.40;;;;;;5054296;28;20048;-51
2021/09/25 04:47:10;;;;;;;3.35;2.25;;;21.80;54.50;;;;;;5053600;28;20111;-51
2021/09/25 04:49:38;;;;;;;2.05;1.35;;;21.80;54.60;;;;;;5051740;28;20127;-49
2021/09/25 04:52:06;;;;;;;2.03;1.50;;;21.90;54.80;;;;;;5050802;28;20047;-49
2021/09/25 04:54:33;;;;;;;2.50;1.15;;;22.00;54.80;;;;;;5048736;28;20055;-52
2021/09/25 04:57:00;;;;;;;1.95;1.52;;;22.20;54.60;;;;;;5060500;28;20044;-51
2021/09/25 04:59:27;;;;;;;3.65;1.23;;;22.30;54.50;;;;;;5054923;28;20069;-51
2021/09/25 05:01:54;;;;;;;1.00;0.65;;;22.50;54.40;;;;;;5060146;28;20083;-51
2021/09/25 05:04:21;;;;;;;0.88;0.60;;;22.60;54.20;;;;;;5052072;28;20607;-50
2021/09/25 05:06:50;;;;;;;0.75;0.70;;;22.70;54.00;;;;;;5051336;28;20123;-50
2021/09/25 05:09:18;;;;;;;2.13;1.42;;;22.80;53.80;;;;;;5064067;28;20257;-53
2021/09/25 05:11:45;;;;;;;3.33;0.88;;;22.90;53.70;;;;;;5062523;28;20055;-52
2021/09/25 05:14:12;;;;;;;1.90;1.80;;;23.00;53.50;;;;;;5056420;28;20048;-53
2021/09/25 05:16:39;;;;;;;5.10;0.90;;;23.10;53.40;;;;;;5052597;28;20034;-51
2021/09/25 05:19:07;;;;;;;1.60;0.77;;;23.20;53.20;;;;;;5051157;28;20049;-52
2021/09/25 05:21:34;;;;;;;1.20;0.68;;;23.30;53.10;;;;;;5048210;28;20048;-53
2021/09/25 05:24:02;;;;;;;8.07;0.60;;;23.40;53.00;;;;;;5061557;28;20036;-53
2021/09/25 05:26:29;;;;;;;0.40;0.30;;;23.50;52.90;;;;;;5052421;28;20056;-51
2021/09/25 05:28:56;;;;;;;1.02;0.40;;;23.50;52.80;;;;;;5051835;28;20028;-51
2021/09/25 05:31:23;;;;;;;0.88;0.88;;;23.60;52.80;;;;;;5063222;28;20079;-51
2021/09/25 05:33:50;;;;;;;1.85;0.70;;;23.60;52.70;;;;;;5065476;28;20043;-54
2021/09/25 05:36:17;;;;;;;0.68;0.60;;;23.70;52.60;;;;;;5056595;28;20420;-54
2021/09/25 05:38:44;;;;;;;0.73;0.50;;;23.80;52.60;;;;;;5053460;28;20420;-51
2021/09/25 05:41:13;;;;;;;1.30;1.17;;;23.80;52.40;;;;;;5052395;28;20037;-54
2021/09/25 05:43:40;;;;;;;0.77;0.28;;;23.90;52.40;;;;;;5060128;28;20037;-54
2021/09/25 05:46:08;;;;;;;0.75;0.75;;;23.90;52.20;;;;;;5061307;28;20055;-53
2021/09/25 05:48:35;;;;;;;1.65;0.55;;;23.90;52.70;;;;;;5064849;28;20047;-52
2021/09/25 05:51:02;;;;;;;1.35;0.50;;;24.00;52.10;;;;;;5060303;28;20041;-52
2021/09/25 05:53:29;;;;;;;0.85;0.38;;;24.00;52.00;;;;;;5053773;28;20036;-54
2021/09/25 05:55:56;;;;;;;1.02;0.57;;;24.10;52.00;;;;;;5050492;28;20041;-55
2021/09/25 05:58:25;;;;;;;4.38;0.82;;;24.10;51.90;;;;;;5049891;28;20543;-54
2021/09/25 06:00:52;;;;;;;1.52;0.60;;;24.10;51.80;;;;;;5061948;28;20530;-51
2021/09/25 06:03:19;;;;;;;0.40;0.40;;;24.20;51.80;;;;;;5047390;28;20041;-53
2021/09/25 06:05:46;;;;;;;1.35;0.47;;;24.20;51.80;;;;;;5050348;28;20172;-54
2021/09/25 06:08:14;;;;;;;0.60;0.60;;;24.30;51.80;;;;;;5053731;28;20044;-52
2021/09/25 06:10:42;;;;;;;0.60;0.60;;;24.30;51.70;;;;;;5052474;28;20455;-56
2021/09/25 06:13:10;;;;;;;4.63;3.85;;;24.30;51.70;;;;;;5055323;28;20040;-53
2021/09/25 06:15:39;;;;;;;3.80;3.53;;;24.20;50.00;;;;;;5047154;28;20054;-59
2021/09/25 06:18:07;;;;;;;5.38;2.10;;;24.00;49.80;;;;;;5059759;28;20509;-52
2021/09/25 06:20:34;;;;;;;3.92;2.40;;;23.90;50.40;;;;;;5052501;28;20096;-50
2021/09/25 06:23:01;;;;;;;1.63;1.50;;;23.80;50.90;;;;;;5051924;28;20037;-51
2021/09/25 06:25:28;;;;;;;11.98;0.90;;;23.70;51.20;;;;;;5053662;28;20134;-49
2021/09/25 06:27:55;;;;;;;1.85;0.80;;;23.70;51.60;;;;;;5066128;28;20135;-53
2021/09/25 06:30:22;;;;;;;2.53;0.75;;;23.70;51.80;;;;;;5055840;28;20513;-52
2021/09/25 06:32:50;;;;;;;2.70;0.98;;;23.70;51.90;;;;;;5057566;28;20058;-51
2021/09/25 06:35:17;;;;;;;5.90;0.88;;;23.80;52.10;;;;;;5062295;28;20048;-51
2021/09/25 06:37:44;;;;;;;2.00;0.65;;;23.70;52.00;;;;;;5059395;28;20044;-50
2021/09/25 06:40:13;;;;;;;2.63;0.55;;;23.70;52.00;;;;;;5055331;28;20115;-53
2021/09/25 06:42:41;;;;;;;1.85;0.90;;;23.80;52.10;;;;;;5064130;28;20489;-50
2021/09/25 06:45:10;;;;;;;0.93;0.50;;;23.70;52.00;;;;;;5051799;28;20443;-51
2021/09/25 06:47:38;;;;;;;1.17;0.57;;;23.80;52.10;;;;;;5062375;28;20515;-52
2021/09/25 06:50:08;;;;;;;0.70;0.50;;;23.80;52.10;;;;;;5057096;28;20060;-52
2021/09/25 06:52:35;;;;;;;2.53;1.38;;;23.80;52.10;;;;;;5048748;28;20064;-52
2021/09/25 06:55:03;;;;;;;1.25;0.28;;;23.80;52.20;;;;;;5049004;28;20124;-54
2021/09/25 06:57:31;;;;;;;3.15;0.55;;;23.80;52.20;;;;;;5048898;28;20448;-53
2021/09/25 06:59:58;;;;;;;1.45;0.47;;;23.80;52.20;;;;;;5053119;28;20509;-52
2021/09/25 07:02:25;;;;;;;1.50;0.30;;;23.80;52.20;;;;;;5055069;28;20147;-50
2021/09/25 07:04:52;;;;;;;2.92;0.68;;;23.80;52.20;;;;;;5051986;28;20048;-53
2021/09/25 07:07:20;;;;;;;2.05;0.63;;;23.80;52.20;;;;;;5053045;28;20053;-49
2021/09/25 07:09:47;;;;;;;1.60;1.15;;;23.80;52.20;;;;;;5052185;28;20063;-53
2021/09/25 07:12:14;;;;;;;0.40;0.40;;;23.90;52.20;;;;;;5056024;28;20407;-51
2021/09/25 07:14:41;;;;;;;1.10;0.30;;;23.90;52.20;;;;;;5063204;28;20123;-53
2021/09/25 07:17:08;;;;;;;1.00;0.50;;;23.90;52.20;;;;;;5061440;28;20083;-52
2021/09/25 07:19:35;;;;;;;0.60;0.60;;;23.90;52.10;;;;;;5065289;28;20036;-54
2021/09/25 07:22:02;;;;;;;1.92;0.57;;;23.90;52.10;;;;;;5050708;28;20051;-51
2021/09/25 07:24:31;;;;;;;1.92;0.52;;;23.90;52.10;;;;;;5053718;28;20045;-50
2021/09/25 07:26:58;;;;;;;1.42;0.50;;;23.90;52.00;;;;;;5055468;28;20154;-52
2021/09/25 07:29:25;;;;;;;0.55;0.52;;;23.90;52.00;;;;;;5059021;28;20046;-51
2021/09/25 07:31:52;;;;;;;0.93;0.90;;;23.90;52.00;;;;;;5063454;28;20122;-51
2021/09/25 07:34:19;;;;;;;0.50;0.50;;;24.00;52.10;;;;;;5051338;28;20119;-53
2021/09/25 07:36:46;;;;;;;1.02;0.73;;;24.00;52.00;;;;;;5066227;28;20583;-54
2021/09/25 07:39:13;;;;;;;1.42;0.40;;;24.00;52.00;;;;;;5054885;28;20147;-50
2021/09/25 07:41:41;;;;;;;3.60;0.55;;;24.00;52.00;;;;;;5054000;28;20029;-50
2021/09/25 07:44:08;;;;;;;0.75;0.75;;;24.00;51.90;;;;;;5055975;28;20554;-50
2021/09/25 07:46:35;;;;;;;0.88;0.50;;;24.00;51.90;;;;;;5065275;28;20534;-49
2021/09/25 07:49:02;;;;;;;0.60;0.57;;;24.10;51.90;;;;;;5066520;28;20046;-53
2021/09/25 07:51:30;;;;;;;0.65;0.65;;;24.10;51.90;;;;;;5048810;28;20068;-48
2021/09/25 07:53:57;;;;;;;0.63;0.40;;;24.10;51.80;;;;;;5062680;28;20049;-53
2021/09/25 07:56:24;;;;;;;0.57;0.57;;;24.10;51.80;;;;;;5061308;28;20048;-49
2021/09/25 07:58:52;;;;;;;1.10;0.60;;;24.10;51.70;;;;;;5062370;28;20041;-49
2021/09/25 08:01:19;;;;;;;1.40;0.80;;;24.20;51.70;;;;;;5063364;28;20640;-50
2021/09/25 08:03:46;;;;;;;0.45;0.45;;;24.10;51.70;;;;;;5066852;28;20055;-53
2021/09/25 08:06:13;;;;;;;0.43;0.28;;;24.20;51.70;;;;;;5051784;28;20772;-49
2021/09/25 08:08:40;;;;;;;0.30;0.20;;;24.20;51.60;;;;;;5058433;28;20040;-49
2021/09/25 08:11:07;;;;;;;1.10;0.65;;;24.30;51.70;;;;;;5062083;28;20143;-52
2021/09/25 08:13:34;;;;;;;1.23;0.30;;;24.30;51.70;;;;;;5061780;28;20040;-50
2021/09/25 08:16:03;;;;;;;0.32;0.32;;;24.30;51.70;;;;;;5051187;28;20488;-53
2021/09/25 08:18:30;;;;;;;0.50;0.40;;;24.30;52.20;;;;;;5064900;28;20045;-49
2021/09/25 08:20:58;;;;;;;0.68;0.60;;;24.30;51.60;;;;;;5062216;28;20045;-54
2021/09/25 08:23:25;;;;;;;0.63;0.63;;;24.40;51.60;;;;;;5060804;28;20047;-51
2021/09/25 08:25:53;;;;;;;0.60;0.55;;;24.40;51.50;;;;;;5063008;28;20077;-53
2021/09/25 08:28:20;;;;;;;3.05;0.95;;;24.40;51.50;;;;;;5056239;28;20036;-50
2021/09/25 08:30:47;;;;;;;2.05;0.50;;;24.40;51.40;;;;;;5065502;28;20587;-55
2021/09/25 08:33:16;;;;;;;1.05;0.80;;;24.40;52.00;;;;;;5060759;28;20036;-53
2021/09/25 08:35:43;;;;;;;0.50;0.50;;;24.50;51.40;;;;;;5061499;28;20043;-53
2021/09/25 08:38:10;;;;;;;0.85;0.77;;;24.50;51.30;;;;;;5060503;28;20127;-51
2021/09/25 08:40:37;;;;;;;0.52;0.52;;;24.50;51.30;;;;;;5059378;28;20132;-52
2021/09/25 08:43:04;;;;;;;0.95;0.60;;;24.50;51.30;;;;;;5065650;28;20037;-53
2021/09/25 08:45:31;;;;;;;1.63;1.23;;;24.50;51.20;;;;;;5063156;28;20045;-47
2021/09/25 08:47:59;;;;;;;1.20;0.85;;;24.50;51.20;;;;;;5055342;28;20063;-51
2021/09/25 08:50:28;;;;;;;1.95;1.30;;;24.60;51.20;;;;;;5056413;28;20071;-49
2021/09/25 08:52:55;;;;;;;1.20;0.77;;;24.60;51.20;;;;;;5062780;28;20055;-51
2021/09/25 08:55:23;;;;;;;1.75;0.80;;;24.60;51.20;;;;;;5049837;28;20037;-49
2021/09/25 08:57:50;;;;;;;1.15;1.05;;;24.60;51.10;;;;;;5078312;28;20035;-48
2021/09/25 09:00:38;;;;;;;2.38;0.95;;;24.60;51.00;;;;;;5064401;28;20143;-50
2021/09/25 09:03:32;;;;;;;0.60;0.40;;;24.70;51.00;;;;;;5063569;28;20123;-49
2021/09/25 09:06:14;;;;;;;0.77;0.40;;;24.70;51.00;;;;;;5052580;28;20037;-49
2021/09/25 09:08:42;;;;;;;2.53;1.20;;;24.70;51.00;;;;;;5058866;28;20068;-52
2021/09/25 09:11:10;;;;;;;2.28;1.00;;;24.70;50.90;;;;;;5061032;28;20029;-51
2021/09/25 09:13:40;;;;;;;3.53;0.77;;;24.70;50.80;;;;;;5060528;28;20604;-52
2021/09/25 09:16:09;;;;;;;1.63;1.55;;;24.80;50.80;;;;;;5065211;28;20144;-54
2021/09/25 09:18:39;;;;;;;2.25;1.23;;;24.80;50.80;;;;;;5047447;28;20045;-51
2021/09/25 09:21:12;;;;;;;2.15;1.00;;;24.80;50.70;;;;;;5063219;28;20852;-52
2021/09/25 09:23:40;;;;;;;2.08;0.98;;;24.90;50.70;;;;;;5053614;28;20051;-52
2021/09/25 09:26:09;;;;;;;1.55;1.10;;;24.90;50.70;;;;;;5054075;28;20374;-52
2021/09/25 09:28:39;;;;;;;1.90;1.75;;;24.90;50.60;;;;;;5060805;28;20032;-52
2021/09/25 09:31:07;;;;;;;0.60;0.60;;;24.90;50.60;;;;;;5064376;28;20068;-54
2021/09/25 09:33:37;;;;;;;1.20;0.90;;;24.90;50.50;;;;;;5064272;28;20086;-49
2021/09/25 09:36:23;;;;;;;1.17;0.93;;;24.90;51.10;;;;;;5052448;28;20561;-49
2021/09/25 09:38:53;;;;;;;;;;;25.00;50.50;;;;;;5051138;28;20528;-51
2021/09/25 09:41:22;;;;;;;2.15;0.90;;;24.90;50.40;;;;;;5055555;28;20458;-52
2021/09/25 09:43:50;;;;;;;0.85;0.85;;;24.90;50.50;;;;;;5059811;28;20059;-48
2021/09/25 09:46:17;;;;;;;0.82;0.60;;;24.90;50.40;;;;;;5062925;28;20439;-50
2021/09/25 09:48:45;;;;;;;1.10;0.70;;;25.00;50.40;;;;;;5065039;28;20420;-53
2021/09/25 09:51:13;;;;;;;0.80;0.80;;;25.00;50.30;;;;;;5048047;28;20094;-51
2021/09/25 09:53:49;;;;;;;1.63;1.52;;;25.00;50.30;;;;;;5047281;28;20116;-49
2021/09/25 09:56:18;;;;;;;1.42;0.68;;;25.10;50.30;;;;;;5054427;28;20055;-48
2021/09/25 09:58:55;;;;;;;1.50;1.00;;;25.00;50.30;;;;;;5061429;28;20036;-49
2021/09/25 10:01:22;;;;;;;0.77;0.77;;;25.10;50.30;;;;;;5048907;28;20124;-51
2021/09/25 10:03:50;;;;;;;1.15;1.00;;;25.10;50.20;;;;;;5072674;28;20042;-49
2021/09/25 10:06:17;;;;;;;0.63;0.63;;;25.10;50.20;;;;;;5049085;28;20079;-50
2021/09/25 10:08:46;;;;;;;1.65;1.02;;;25.10;50.10;;;;;;5050578;28;20543;-50
2021/09/25 10:11:16;;;;;;;1.35;0.80;;;25.10;50.10;;;;;;5053983;28;20655;-53
2021/09/25 10:13:43;;;;;;;1.08;1.00;;;25.20;50.10;;;;;;5059831;28;20033;-49
2021/09/25 10:16:11;;;;;;;1.05;1.00;;;25.20;50.60;;;;;;5063529;28;20128;-53
2021/09/25 10:18:39;;;;;;;0.60;0.60;;;25.20;50.00;;;;;;5063139;28;20045;-50
2021/09/25 10:21:10;;;;;;;1.02;1.02;;;25.20;49.90;;;;;;5063934;28;20408;-52
2021/09/25 10:23:40;;;;;;;0.73;0.73;;;25.30;50.00;;;;;;5064678;28;20071;-51
2021/09/25 10:26:09;;;;;;;0.90;0.90;;;25.30;49.90;;;;;;5063559;28;20490;-51
2021/09/25 10:28:36;;;;;;;1.25;0.80;;;25.30;49.80;;;;;;5062845;28;20500;-52
2021/09/25 10:31:03;;;;;;;1.35;1.20;;;25.30;49.70;;;;;;5059711;28;20266;-50
2021/09/25 10:33:30;;;;;;;0.82;0.82;;;25.40;49.80;;;;;;5059259;28;20124;-50
2021/09/25 10:35:57;;;;;;;1.38;1.02;;;25.30;49.60;;;;;;5049440;28;20143;-51
2021/09/25 10:38:37;;;;;;;1.25;0.50;;;25.40;49.60;;;;;;5049306;28;20071;-54
2021/09/25 10:41:16;;;;;;;0.88;0.88;;;25.50;49.50;;;;;;5050312;28;20044;-49
2021/09/25 10:43:45;;;;;;;0.98;0.98;;;25.50;49.50;;;;;;5050120;28;20047;-51
2021/09/25 10:46:13;;;;;;;1.13;1.13;;;25.50;49.50;;;;;;5060745;28;20064;-52
2021/09/25 10:48:49;;;;;;;0.70;0.70;;;25.50;49.40;;;;;;5062075;28;20041;-53
2021/09/25 10:51:20;;;;;;;0.85;0.60;;;25.60;49.40;;;;;;5055813;28;20132;-49
2021/09/25 10:53:50;;;;;;;1.25;1.17;;;25.60;49.30;;;;;;5066489;28;20044;-48
2021/09/25 10:56:21;;;;;;;2.58;0.80;;;25.60;49.20;;;;;;5055743;28;20033;-51
2021/09/25 10:58:56;;;;;;;0.60;0.60;;;25.70;49.20;;;;;;5059343;28;20040;-52
2021/09/25 11:01:33;;;;;;;0.82;0.82;;;25.70;49.10;;;;;;5053829;28;20670;-50
2021/09/25 11:04:10;;;;;;;0.93;0.60;;;25.70;49.00;;;;;;5049854;28;20131;-51
2021/09/25 11:06:45;;;;;;;1.02;0.95;;;25.70;49.00;;;;;;5063347;28;20050;-51
2021/09/25 11:09:19;;;;;;;1.25;1.17;;;25.80;49.10;;;;;;5065181;28;20048;-51
2021/09/25 11:11:54;;;;;;;1.15;0.50;;;25.80;48.90;;;;;;5051782;28;20055;-52
2021/09/25 11:14:24;;;;;;;0.80;0.80;;;25.80;48.90;;;;;;5050961;28;20078;-49
2021/09/25 11:17:03;;;;;;;2.03;0.80;;;25.80;48.80;;;;;;5048538;28;20456;-51
2021/09/25 11:19:39;;;;;;;0.70;0.70;;;25.90;48.80;;;;;;5049994;28;20400;-49
2021/09/25 11:22:11;;;;;;;0.85;0.85;;;25.90;48.70;;;;;;5059704;28;20044;-52
2021/09/25 11:24:41;;;;;;;0.77;0.77;;;25.90;48.60;;;;;;5062947;28;20040;-52
2021/09/25 11:27:12;;;;;;;3.72;0.75;;;25.90;48.60;;;;;;5056407;28;20114;-50
2021/09/25 11:30:09;;;;;;;0.95;0.60;;;25.90;48.50;;;;;;5045877;28;20398;-51
2021/09/25 11:32:38;;;;;;;0.85;0.60;;;26.00;48.50;;;;;;5049568;28;20037;-53
2021/09/25 11:35:09;;;;;;;1.98;1.25;;;26.00;48.50;;;;;;5050186;28;20095;-53
2021/09/25 11:37:48;;;;;;;1.92;0.60;;;26.00;48.40;;;;;;5049877;28;20044;-49
2021/09/25 11:40:16;;;;;;;0.88;0.85;;;26.10;48.40;;;;;;5048163;28;20134;-49
2021/09/25 11:42:45;;;;;;;1.20;1.10;;;26.10;48.40;;;;;;5049724;28;20122;-51
2021/09/25 11:45:14;;;;;;;1.23;0.95;;;26.10;48.30;;;;;;5057864;28;20048;-52
2021/09/25 11:47:43;;;;;;;0.65;0.65;;;26.10;48.30;;;;;;5052985;28;20043;-50
2021/09/25 11:50:14;;;;;;;2.70;0.70;;;26.10;48.20;;;;;;5053486;28;20052;-49
2021/09/25 11:52:43;;;;;;;1.85;0.88;;;26.20;48.30;;;;;;5051162;28;20041;-50
2021/09/25 11:55:11;;;;;;;0.63;0.63;;;26.20;48.20;;;;;;5050865;28;20033;-53
2021/09/25 11:57:39;;;;;;;0.57;0.50;;;26.20;48.20;;;;;;5055080;28;20060;-53
2021/09/25 12:00:20;;;;;;;0.60;0.60;;;26.30;48.20;;;;;;5055152;28;20053;-54
2021/09/25 12:02:49;;;;;;;3.05;0.75;;;26.30;48.10;;;;;;5052535;28;20049;-53
2021/09/25 12:05:41;;;;;;;1.52;0.75;;;26.30;48.10;;;;;;5053121;28;20124;-49
2021/09/25 12:08:09;;;;;;;0.68;0.52;;;26.30;48.00;;;;;;5043133;28;20139;-49
2021/09/25 12:10:38;;;;;;;0.65;0.65;;;26.30;48.10;;;;;;5051930;28;20069;-50
2021/09/25 12:13:08;;;;;;;1.05;0.80;;;26.30;48.00;;;;;;5051073;28;20045;-49
2021/09/25 12:15:38;;;;;;;2.38;1.88;;;26.40;48.00;;;;;;5065483;28;20041;-49
2021/09/25 12:18:17;;;;;;;0.55;0.55;;;26.40;48.00;;;;;;5063112;28;20043;-51
2021/09/25 12:20:47;;;;;;;0.73;0.73;;;26.40;48.00;;;;;;5061116;28;20078;-50
2021/09/25 12:23:18;;;;;;;0.93;0.93;;;26.40;47.90;;;;;;5066386;28;20033;-51
2021/09/25 12:25:46;;;;;;;6.18;0.80;;;26.50;48.00;;;;;;5063203;28;20123;-50
2021/09/25 12:28:29;;;;;;;0.85;0.80;;;26.50;48.00;;;;;;5050622;28;20402;-51
2021/09/25 12:30:59;;;;;;;1.05;0.95;;;26.50;47.90;;;;;;5051540;28;20047;-51
2021/09/25 12:33:27;;;;;;;1.67;1.20;;;26.50;47.90;;;;;;5059276;28;20425;-51
2021/09/25 12:35:57;;;;;;;1.27;0.93;;;26.50;47.80;;;;;;5057121;28;20037;-49
2021/09/25 12:38:29;;;;;;;0.70;0.70;;;26.60;47.90;;;;;;5064334;28;20039;-49
2021/09/25 12:41:02;;;;;;;2.40;1.08;;;26.60;47.80;;;;;;5061606;28;20485;-50
2021/09/25 12:43:36;;;;;;;1.58;1.48;;;26.60;47.80;;;;;;5054107;28;20041;-50
2021/09/25 12:46:10;;;;;;;2.95;1.30;;;26.70;47.80;;;;;;5057781;28;20538;-51
2021/09/25 12:49:09;;;;;;;1.23;1.23;;;26.70;47.80;;;;;;5061069;28;20048;-54
2021/09/25 12:51:38;;;;;;;1.02;1.02;;;26.70;47.70;;;;;;5065231;28;20499;-49
2021/09/25 12:54:07;;;;;;;1.13;1.13;;;26.70;47.80;;;;;;5049404;28;20052;-52
2021/09/25 12:56:38;;;;;;;2.70;1.30;;;26.70;47.70;;;;;;5047964;28;20043;-49